createdAt,value
2017-07-31T00:00:41.092Z,16.90
2017-07-31T00:03:08.653Z,17.00
2017-07-31T00:05:36.284Z,16.90
2017-07-31T00:16:43.379Z,16.80
2017-07-31T00:19:10.931Z,16.70
2017-07-31T00:21:38.615Z,16.60
2017-07-31T00:24:06.335Z,16.60
2017-07-31T00:26:33.879Z,16.60
2017-07-31T00:29:01.452Z,16.70
2017-07-31T00:31:29.150Z,16.80
2017-07-31T00:33:56.701Z,16.90
2017-07-31T00:36:24.248Z,17.00
2017-07-31T00:38:51.832Z,17.10
2017-07-31T00:41:19.388Z,17.10
2017-07-31T00:43:46.944Z,17.10
2017-07-31T00:46:14.523Z,17.20
2017-07-31T00:48:42.080Z,17.20
2017-07-31T00:51:09.656Z,17.30
2017-07-31T00:53:37.383Z,17.10
2017-07-31T00:56:04.952Z,17.10
2017-07-31T00:58:32.510Z,17.10
2017-07-31T01:01:00.208Z,17.30
2017-07-31T01:03:27.759Z,17.40
2017-07-31T01:05:55.315Z,17.40
2017-07-31T01:08:22.899Z,17.50
2017-07-31T01:10:50.457Z,17.50
2017-07-31T01:13:18.018Z,17.40
2017-07-31T01:15:45.595Z,17.40
2017-07-31T01:18:13.155Z,17.40
2017-07-31T01:20:40.706Z,17.50
2017-07-31T01:23:08.303Z,17.60
2017-07-31T01:25:35.867Z,17.60
2017-07-31T01:28:03.424Z,17.60
2017-07-31T01:30:31.026Z,17.70
2017-07-31T01:32:58.582Z,17.80
2017-07-31T01:35:26.135Z,17.80
2017-07-31T01:37:53.886Z,17.70
2017-07-31T01:40:21.437Z,17.60
2017-07-31T01:42:49.035Z,17.60
2017-07-31T01:45:16.750Z,17.70
2017-07-31T01:47:44.306Z,17.80
2017-07-31T01:50:11.869Z,17.80
2017-07-31T01:52:39.696Z,17.90
2017-07-31T01:55:07.250Z,17.80
2017-07-31T01:57:34.811Z,17.90
2017-07-31T02:00:02.580Z,17.90
2017-07-31T02:02:30.136Z,18.00
2017-07-31T02:04:57.696Z,18.10
2017-07-31T02:07:25.294Z,18.10
2017-07-31T02:09:52.846Z,18.10
2017-07-31T02:12:20.403Z,18.00
2017-07-31T02:14:48.131Z,18.00
2017-07-31T02:17:15.690Z,18.00
2017-07-31T02:19:43.243Z,18.00
2017-07-31T02:22:10.923Z,18.00
2017-07-31T02:24:38.468Z,18.00
2017-07-31T02:27:06.024Z,18.00
2017-07-31T02:29:33.741Z,18.10
2017-07-31T02:32:01.304Z,18.10
2017-07-31T02:34:28.852Z,18.10
2017-07-31T02:36:56.524Z,18.00
2017-07-31T02:39:24.091Z,18.00
2017-07-31T02:41:51.644Z,18.00
2017-07-31T02:44:19.236Z,18.10
2017-07-31T02:46:46.858Z,18.10
2017-07-31T02:49:14.460Z,18.00
2017-07-31T02:51:42.151Z,18.00
2017-07-31T02:54:09.698Z,18.10
2017-07-31T02:56:37.263Z,18.00
2017-07-31T02:59:04.975Z,18.00
2017-07-31T03:01:32.532Z,18.00
2017-07-31T03:04:00.092Z,18.10
2017-07-31T03:06:27.687Z,18.00
2017-07-31T03:08:55.239Z,18.00
2017-07-31T03:11:22.805Z,18.00
2017-07-31T03:13:50.620Z,18.00
2017-07-31T03:16:18.231Z,18.00
2017-07-31T03:18:45.781Z,18.00
2017-07-31T03:21:13.571Z,18.00
2017-07-31T03:23:41.126Z,18.00
2017-07-31T03:26:08.687Z,18.00
2017-07-31T03:28:36.262Z,18.00
2017-07-31T03:31:03.837Z,18.00
2017-07-31T03:33:31.626Z,17.90
2017-07-31T03:35:59.326Z,17.90
2017-07-31T03:38:26.904Z,17.80
2017-07-31T03:40:54.472Z,17.80
2017-07-31T03:43:22.065Z,17.80
2017-07-31T03:45:49.626Z,17.80
2017-07-31T03:48:17.188Z,17.70
2017-07-31T03:50:44.926Z,17.80
2017-07-31T03:53:12.481Z,17.70
2017-07-31T03:55:40.057Z,17.70
2017-07-31T03:58:07.898Z,17.70
2017-07-31T04:00:35.459Z,17.60
2017-07-31T04:03:03.020Z,17.60
2017-07-31T04:05:30.613Z,17.60
2017-07-31T04:07:58.181Z,17.60
2017-07-31T04:10:25.778Z,17.50
2017-07-31T04:12:53.664Z,17.40
2017-07-31T04:15:21.276Z,17.40
2017-07-31T04:17:48.886Z,17.40
2017-07-31T04:20:16.565Z,17.40
2017-07-31T04:22:44.153Z,17.50
2017-07-31T04:25:11.755Z,17.40
2017-07-31T04:27:39.381Z,17.40
2017-07-31T04:30:06.957Z,17.50
2017-07-31T04:32:34.541Z,17.40
2017-07-31T04:35:02.235Z,17.40
2017-07-31T04:37:29.795Z,17.30
2017-07-31T04:39:57.374Z,17.30
2017-07-31T04:42:25.116Z,17.20
2017-07-31T04:44:52.796Z,17.20
2017-07-31T04:47:20.408Z,17.20
2017-07-31T04:49:48.123Z,17.10
2017-07-31T04:52:15.688Z,17.10
2017-07-31T04:54:43.278Z,17.00
2017-07-31T04:57:10.987Z,17.00
2017-07-31T04:59:38.532Z,16.90
2017-07-31T05:02:06.087Z,17.00
2017-07-31T05:04:33.818Z,17.00
2017-07-31T05:07:01.368Z,17.00
2017-07-31T05:09:28.911Z,17.10
2017-07-31T05:11:56.650Z,17.10
2017-07-31T05:14:24.206Z,17.10
2017-07-31T05:16:51.775Z,17.10
2017-07-31T05:19:19.393Z,17.10
2017-07-31T05:21:46.935Z,17.10
2017-07-31T05:24:14.493Z,17.10
2017-07-31T05:26:42.254Z,17.10
2017-07-31T05:29:09.830Z,17.10
2017-07-31T05:31:37.373Z,17.20
2017-07-31T05:34:05.099Z,17.20
2017-07-31T05:36:32.652Z,17.10
2017-07-31T05:39:00.203Z,17.10
2017-07-31T05:41:27.789Z,17.10
2017-07-31T05:43:55.383Z,17.00
2017-07-31T05:46:22.972Z,17.00
2017-07-31T05:48:50.698Z,17.10
2017-07-31T05:51:18.252Z,17.10
2017-07-31T05:53:45.802Z,17.20
2017-07-31T05:56:13.490Z,17.30
2017-07-31T05:58:41.048Z,17.40
2017-07-31T06:01:08.592Z,17.40
2017-07-31T06:03:36.174Z,17.40
2017-07-31T06:06:03.740Z,17.50
2017-07-31T06:08:31.282Z,17.50
2017-07-31T06:10:58.862Z,17.60
2017-07-31T06:13:26.416Z,17.60
2017-07-31T06:15:53.972Z,17.70
2017-07-31T06:18:21.720Z,17.70
2017-07-31T06:20:49.271Z,17.90
2017-07-31T06:23:16.812Z,17.90
2017-07-31T06:25:44.533Z,17.90
2017-07-31T06:28:12.086Z,18.00
2017-07-31T06:30:39.630Z,18.10
2017-07-31T06:33:07.370Z,18.20
2017-07-31T06:35:34.926Z,18.20
2017-07-31T06:38:02.478Z,18.30
2017-07-31T06:40:30.228Z,18.40
2017-07-31T06:42:57.770Z,18.50
2017-07-31T06:45:25.314Z,18.60
2017-07-31T06:47:52.918Z,18.60
2017-07-31T06:50:20.463Z,18.70
2017-07-31T06:52:48.018Z,18.80
2017-07-31T06:55:15.773Z,18.90
2017-07-31T06:57:43.323Z,19.00
2017-07-31T07:00:10.879Z,19.20
2017-07-31T07:02:38.629Z,19.20
2017-07-31T07:05:06.174Z,19.30
2017-07-31T07:07:33.743Z,19.30
2017-07-31T07:10:01.461Z,19.30
2017-07-31T07:12:29.014Z,19.40
2017-07-31T07:14:56.555Z,19.40
2017-07-31T07:17:24.387Z,19.40
2017-07-31T07:19:51.931Z,19.40
2017-07-31T07:22:19.470Z,19.40
2017-07-31T07:24:47.183Z,19.60
2017-07-31T07:27:14.732Z,19.60
2017-07-31T07:29:42.282Z,19.70
2017-07-31T07:32:09.995Z,19.90
2017-07-31T07:34:37.540Z,19.90
2017-07-31T07:37:05.085Z,19.90
2017-07-31T07:39:32.943Z,20.00
2017-07-31T07:42:00.484Z,20.00
2017-07-31T07:44:28.051Z,20.00
2017-07-31T07:46:55.639Z,20.00
2017-07-31T07:49:23.186Z,20.10
2017-07-31T07:51:50.726Z,20.10
2017-07-31T07:54:18.392Z,20.10
2017-07-31T07:56:46.008Z,20.20
2017-07-31T07:59:13.567Z,20.30
2017-07-31T08:01:41.166Z,20.40
2017-07-31T08:04:08.715Z,20.50
2017-07-31T08:06:36.271Z,20.50
2017-07-31T08:09:03.917Z,20.50
2017-07-31T08:11:31.468Z,20.60
2017-07-31T08:13:59.024Z,20.60
2017-07-31T08:16:26.614Z,20.70
2017-07-31T08:18:54.155Z,20.70
2017-07-31T08:21:21.713Z,20.80
2017-07-31T08:23:49.454Z,20.90
2017-07-31T08:26:17.004Z,20.90
2017-07-31T08:28:44.568Z,20.90
2017-07-31T08:31:12.159Z,21.00
2017-07-31T08:33:39.704Z,21.00
2017-07-31T08:36:07.246Z,21.10
2017-07-31T08:38:34.948Z,21.20
2017-07-31T08:41:02.500Z,21.10
2017-07-31T08:43:30.046Z,21.20
2017-07-31T08:45:57.930Z,21.20
2017-07-31T08:48:25.475Z,21.20
2017-07-31T08:50:53.016Z,21.20
2017-07-31T08:53:20.604Z,21.20
2017-07-31T08:55:48.143Z,21.20
2017-07-31T08:58:15.684Z,21.30
2017-07-31T09:00:43.361Z,21.30
2017-07-31T09:03:10.902Z,21.40
2017-07-31T09:05:38.448Z,21.50
2017-07-31T09:08:06.163Z,21.50
2017-07-31T09:10:33.712Z,21.60
2017-07-31T09:13:01.250Z,21.60
2017-07-31T09:15:28.991Z,21.70
2017-07-31T09:17:56.532Z,21.80
2017-07-31T09:20:24.093Z,21.90
2017-07-31T09:22:51.663Z,21.90
2017-07-31T09:25:19.211Z,21.80
2017-07-31T09:27:46.759Z,21.90
2017-07-31T09:30:14.458Z,21.90
2017-07-31T09:32:42.002Z,22.00
2017-07-31T09:35:09.557Z,22.10
2017-07-31T09:37:37.314Z,22.10
2017-07-31T09:40:04.882Z,22.20
2017-07-31T09:42:32.427Z,22.20
2017-07-31T09:45:00.176Z,22.20
2017-07-31T09:47:27.728Z,22.20
2017-07-31T09:49:55.266Z,22.20
2017-07-31T09:52:22.985Z,22.30
2017-07-31T09:54:50.548Z,22.30
2017-07-31T09:57:18.100Z,22.40
2017-07-31T09:59:45.898Z,22.50
2017-07-31T10:02:13.454Z,22.50
2017-07-31T10:04:41.015Z,22.60
2017-07-31T10:07:08.626Z,22.70
2017-07-31T10:09:36.190Z,22.80
2017-07-31T10:12:03.756Z,22.90
2017-07-31T10:14:31.330Z,22.90
2017-07-31T10:16:58.891Z,23.00
2017-07-31T10:19:26.466Z,23.00
2017-07-31T10:21:54.064Z,23.00
2017-07-31T10:24:21.636Z,22.90
2017-07-31T10:26:49.177Z,22.90
2017-07-31T10:29:17.012Z,22.90
2017-07-31T10:31:44.571Z,22.90
2017-07-31T10:34:12.130Z,22.80
2017-07-31T10:36:39.829Z,22.90
2017-07-31T10:39:07.381Z,22.90
2017-07-31T10:41:34.945Z,23.00
2017-07-31T10:44:02.759Z,23.10
2017-07-31T10:46:30.342Z,23.10
2017-07-31T10:48:57.915Z,23.30
2017-07-31T10:51:25.592Z,23.30
2017-07-31T10:53:53.159Z,23.30
2017-07-31T10:56:20.717Z,23.30
2017-07-31T10:58:48.440Z,23.30
2017-07-31T11:01:16.000Z,23.30
2017-07-31T11:03:43.546Z,23.30
2017-07-31T11:06:11.287Z,23.30
2017-07-31T11:08:38.838Z,23.50
2017-07-31T11:11:06.451Z,23.60
2017-07-31T11:13:34.136Z,23.70
2017-07-31T11:16:01.692Z,23.90
2017-07-31T11:18:29.276Z,24.00
2017-07-31T11:20:57.016Z,24.00
2017-07-31T11:23:24.570Z,24.00
2017-07-31T11:25:52.153Z,24.00
2017-07-31T11:28:20.019Z,24.00
2017-07-31T11:30:47.570Z,23.90
2017-07-31T11:33:15.111Z,23.90
2017-07-31T11:35:42.790Z,24.00
2017-07-31T11:38:10.356Z,24.00
2017-07-31T11:40:37.969Z,24.10
2017-07-31T11:43:05.548Z,24.20
2017-07-31T11:45:33.111Z,24.40
2017-07-31T11:48:00.665Z,24.50
2017-07-31T11:50:28.567Z,24.50
2017-07-31T11:52:56.152Z,24.70
2017-07-31T11:55:23.706Z,24.60
2017-07-31T11:57:51.477Z,24.60
2017-07-31T12:00:19.046Z,24.60
2017-07-31T12:02:46.596Z,24.70
2017-07-31T12:05:14.176Z,24.90
2017-07-31T12:07:41.720Z,24.80
2017-07-31T12:10:09.272Z,24.70
2017-07-31T12:12:36.846Z,24.70
2017-07-31T12:15:04.400Z,24.60
2017-07-31T12:17:31.939Z,24.60
2017-07-31T12:19:59.658Z,24.70
2017-07-31T12:22:27.206Z,24.70
2017-07-31T12:24:54.744Z,24.80
2017-07-31T12:27:22.639Z,24.70
2017-07-31T12:29:50.202Z,24.80
2017-07-31T12:32:17.746Z,24.90
2017-07-31T12:34:45.483Z,24.90
2017-07-31T12:37:13.024Z,25.00
2017-07-31T12:39:40.583Z,25.00
2017-07-31T12:42:08.415Z,25.20
2017-07-31T12:44:35.976Z,25.30
2017-07-31T12:47:03.518Z,25.30
2017-07-31T12:49:31.244Z,25.40
2017-07-31T12:51:58.792Z,25.50
2017-07-31T12:54:26.342Z,25.50
2017-07-31T12:56:54.036Z,25.40
2017-07-31T12:59:21.575Z,25.30
2017-07-31T13:01:49.122Z,25.30
2017-07-31T13:04:16.707Z,25.20
2017-07-31T13:06:44.250Z,25.20
2017-07-31T13:09:11.799Z,25.00
2017-07-31T13:11:39.392Z,25.00
2017-07-31T13:14:06.931Z,25.00
2017-07-31T13:16:34.471Z,25.00
2017-07-31T13:19:02.087Z,25.00
2017-07-31T13:21:29.634Z,24.90
2017-07-31T13:23:57.174Z,24.90
2017-07-31T13:26:24.765Z,25.00
2017-07-31T13:28:52.298Z,25.10
2017-07-31T13:31:19.842Z,25.10
2017-07-31T13:33:47.574Z,25.20
2017-07-31T13:36:15.112Z,25.20
2017-07-31T13:38:42.654Z,25.30
2017-07-31T13:41:10.233Z,25.40
2017-07-31T13:43:37.771Z,25.40
2017-07-31T13:46:05.319Z,25.40
2017-07-31T13:48:33.084Z,25.40
2017-07-31T13:51:00.620Z,25.40
2017-07-31T13:53:28.177Z,25.50
2017-07-31T13:55:55.779Z,25.60
2017-07-31T13:58:23.340Z,25.50
2017-07-31T14:00:50.891Z,25.40
2017-07-31T14:03:18.479Z,25.30
2017-07-31T14:05:46.046Z,25.30
2017-07-31T14:08:13.593Z,25.40
2017-07-31T14:10:41.338Z,25.40
2017-07-31T14:13:08.882Z,25.40
2017-07-31T14:15:36.764Z,25.30
2017-07-31T14:18:04.533Z,25.30
2017-07-31T14:20:32.087Z,25.30
2017-07-31T14:22:59.682Z,25.20
2017-07-31T14:25:28.503Z,25.20
2017-07-31T14:27:56.044Z,25.20
2017-07-31T14:30:23.605Z,25.30
2017-07-31T14:32:51.370Z,25.50
2017-07-31T14:35:18.931Z,25.70
2017-07-31T14:37:46.495Z,25.80
2017-07-31T14:40:14.071Z,25.80
2017-07-31T14:42:41.623Z,25.70
2017-07-31T14:45:09.186Z,25.60
2017-07-31T14:47:36.876Z,25.50
2017-07-31T14:50:04.415Z,25.40
2017-07-31T14:52:31.957Z,25.40
2017-07-31T14:54:59.811Z,25.40
2017-07-31T14:57:27.360Z,25.40
2017-07-31T14:59:54.911Z,25.30
2017-07-31T15:02:22.531Z,25.30
2017-07-31T15:04:50.247Z,25.30
2017-07-31T15:07:17.793Z,25.40
2017-07-31T15:09:45.500Z,25.30
2017-07-31T15:12:13.047Z,25.40
2017-07-31T15:14:40.584Z,25.40
2017-07-31T15:17:08.318Z,25.50
2017-07-31T15:19:35.858Z,25.50
2017-07-31T15:22:03.407Z,25.50
2017-07-31T15:24:39.249Z,25.60
2017-07-31T15:27:06.983Z,25.60
2017-07-31T15:29:34.518Z,25.60
2017-07-31T15:32:02.646Z,25.70
2017-07-31T15:34:30.329Z,25.90
2017-07-31T15:36:57.858Z,26.00
2017-07-31T15:39:25.443Z,25.90
2017-07-31T15:41:52.986Z,25.90
2017-07-31T15:44:20.539Z,25.90
2017-07-31T15:46:48.259Z,25.70
2017-07-31T15:49:15.818Z,25.50
2017-07-31T15:51:43.357Z,25.40
2017-07-31T15:54:11.015Z,25.40
2017-07-31T15:56:38.551Z,25.40
2017-07-31T15:59:06.096Z,25.40
2017-07-31T16:01:33.679Z,25.40
2017-07-31T16:04:01.499Z,25.40
2017-07-31T16:06:29.047Z,25.30
2017-07-31T16:08:57.004Z,25.20
2017-07-31T16:11:24.706Z,25.20
2017-07-31T16:13:52.243Z,25.30
2017-07-31T16:16:19.836Z,25.30
2017-07-31T16:18:47.384Z,25.30
2017-07-31T16:21:14.944Z,25.30
2017-07-31T16:23:42.557Z,25.20
2017-07-31T16:26:10.110Z,25.10
2017-07-31T16:28:37.661Z,25.10
2017-07-31T16:31:05.398Z,25.10
2017-07-31T16:33:32.977Z,25.10
2017-07-31T16:36:00.527Z,25.20
2017-07-31T16:41:43.931Z,25.20
2017-07-31T16:44:11.554Z,25.10
2017-07-31T16:46:39.115Z,25.10
2017-07-31T16:49:12.878Z,25.00
2017-07-31T16:51:40.431Z,24.90
2017-07-31T16:54:07.994Z,24.90
2017-07-31T16:56:35.856Z,24.80
2017-07-31T16:59:04.201Z,24.80
2017-07-31T17:01:32.036Z,24.80
2017-07-31T17:03:59.628Z,24.80
2017-07-31T17:06:27.252Z,24.80
2017-07-31T17:08:54.837Z,24.70
2017-07-31T17:11:22.558Z,24.70
2017-07-31T17:13:50.885Z,24.70
2017-07-31T17:16:18.461Z,24.60
2017-07-31T17:18:46.164Z,24.60
2017-07-31T17:21:13.853Z,24.60
2017-07-31T17:23:41.395Z,24.60
2017-07-31T17:26:09.195Z,24.50
2017-07-31T17:28:36.742Z,24.50
2017-07-31T17:31:04.431Z,24.30
2017-07-31T17:33:32.049Z,24.20
2017-07-31T17:35:59.607Z,24.10
2017-07-31T17:38:29.014Z,24.10
2017-07-31T17:40:56.633Z,23.90
2017-07-31T17:43:24.966Z,23.80
2017-07-31T17:45:52.538Z,23.80
2017-07-31T17:48:20.335Z,23.70
2017-07-31T17:50:47.991Z,23.70
2017-07-31T17:53:15.545Z,23.50
2017-07-31T17:55:43.221Z,23.40
2017-07-31T17:58:11.595Z,23.40
2017-07-31T18:00:39.231Z,23.30
2017-07-31T18:03:07.010Z,23.40
2017-07-31T18:05:34.611Z,23.40
2017-07-31T18:08:02.197Z,23.30
2017-07-31T18:10:29.819Z,23.30
2017-07-31T18:12:57.395Z,23.20
2017-07-31T18:15:26.093Z,23.20
2017-07-31T18:17:53.760Z,23.00
2017-07-31T18:20:24.500Z,22.90
2017-07-31T18:22:52.070Z,22.80
2017-07-31T18:25:19.956Z,22.70
2017-07-31T18:27:47.503Z,22.60
2017-07-31T18:30:15.069Z,22.50
2017-07-31T18:32:42.854Z,22.40
2017-07-31T18:35:10.659Z,22.30
2017-07-31T18:37:40.402Z,22.20
2017-07-31T18:40:15.903Z,22.00
2017-07-31T18:42:43.543Z,22.00
2017-07-31T18:45:11.985Z,21.90
2017-07-31T18:47:40.244Z,21.90
2017-07-31T18:50:15.535Z,21.80
2017-07-31T18:52:44.039Z,21.60
2017-07-31T18:55:11.694Z,21.60
2017-07-31T18:57:39.347Z,21.60
2017-07-31T19:00:09.109Z,21.50
2017-07-31T19:02:36.684Z,21.50
2017-07-31T19:05:04.236Z,21.40
2017-07-31T19:07:32.002Z,21.40
2017-07-31T19:09:59.703Z,21.30
2017-07-31T19:12:27.279Z,21.20
2017-07-31T19:14:54.885Z,21.10
2017-07-31T19:17:22.507Z,21.00
2017-07-31T19:19:50.719Z,20.90
2017-07-31T19:22:18.713Z,20.90
2017-07-31T19:24:46.301Z,20.80
2017-07-31T19:27:13.884Z,20.70
2017-07-31T19:29:41.608Z,20.70
2017-07-31T19:32:09.404Z,20.60
2017-07-31T19:34:37.016Z,20.60
2017-07-31T19:37:05.788Z,20.50
2017-07-31T19:39:33.346Z,20.50
2017-07-31T19:42:01.028Z,20.50
2017-07-31T19:44:28.650Z,20.50
2017-07-31T19:46:56.216Z,20.50
2017-07-31T19:49:24.025Z,20.40
2017-07-31T19:51:52.582Z,20.30
2017-07-31T19:54:20.145Z,20.30
2017-07-31T19:56:48.653Z,20.30
2017-07-31T19:59:17.015Z,20.30
2017-07-31T20:01:45.745Z,20.20
2017-07-31T20:04:13.326Z,20.20
2017-07-31T20:06:41.075Z,20.20
2017-07-31T20:09:08.761Z,20.10
2017-07-31T20:11:36.466Z,20.00
2017-07-31T20:14:04.161Z,20.00
2017-07-31T20:16:31.768Z,19.90
2017-07-31T20:19:05.071Z,19.80
2017-07-31T20:21:32.639Z,19.80
2017-07-31T20:24:00.994Z,19.70
2017-07-31T20:26:28.702Z,19.70
2017-07-31T20:28:57.351Z,19.60
2017-07-31T20:31:25.680Z,19.50
2017-07-31T20:33:53.264Z,19.50
2017-07-31T20:36:20.844Z,19.50
2017-07-31T20:38:49.179Z,19.40
2017-07-31T20:41:16.816Z,19.30
2017-07-31T20:43:44.430Z,19.40
2017-07-31T20:46:11.996Z,19.30
2017-07-31T20:48:39.746Z,19.40
2017-07-31T20:51:07.331Z,19.30
2017-07-31T20:53:34.895Z,19.20
2017-07-31T20:56:02.635Z,19.20
2017-07-31T20:58:30.196Z,19.20
2017-07-31T21:00:57.792Z,19.20
2017-07-31T21:03:25.520Z,19.20
2017-07-31T21:05:53.899Z,19.10
2017-07-31T21:08:21.469Z,19.10
2017-07-31T21:10:49.983Z,19.00
2017-07-31T21:13:17.571Z,19.00
2017-07-31T21:15:45.374Z,18.90
2017-07-31T21:18:13.754Z,18.80
2017-07-31T21:20:42.101Z,18.80
2017-07-31T21:23:09.697Z,18.80
2017-07-31T21:25:38.175Z,18.70
2017-07-31T21:28:05.745Z,18.70
2017-07-31T21:30:33.324Z,18.60
2017-07-31T21:33:01.232Z,18.60
2017-07-31T21:35:28.799Z,18.60
2017-07-31T21:37:56.383Z,18.50
2017-07-31T21:40:24.119Z,18.60
2017-07-31T21:42:52.491Z,18.50
2017-07-31T21:45:20.099Z,18.50
2017-07-31T21:47:47.815Z,18.50
2017-07-31T21:50:15.430Z,18.50
2017-07-31T21:52:43.020Z,18.50
2017-07-31T21:55:10.787Z,18.40
2017-07-31T21:57:38.390Z,18.40
2017-07-31T22:00:06.021Z,18.40
2017-07-31T22:02:33.800Z,18.40
2017-07-31T22:05:01.415Z,18.40
2017-07-31T22:07:29.065Z,18.50
2017-07-31T22:09:57.031Z,18.30
2017-07-31T22:12:24.620Z,18.40
2017-07-31T22:14:52.618Z,18.30
2017-07-31T22:17:26.173Z,18.20
2017-07-31T22:19:53.786Z,18.20
2017-07-31T22:22:21.391Z,18.10
2017-07-31T22:24:49.037Z,18.10
2017-07-31T22:27:16.625Z,18.20
2017-07-31T22:29:44.237Z,18.20
2017-07-31T22:32:11.900Z,18.20
2017-07-31T22:34:39.481Z,18.30
2017-07-31T22:37:07.069Z,18.30
2017-07-31T22:39:34.859Z,18.40
2017-07-31T22:42:02.627Z,18.50
2017-07-31T22:44:31.009Z,18.50
2017-07-31T22:46:58.665Z,18.50
2017-07-31T22:49:26.346Z,18.50
2017-07-31T22:51:54.707Z,18.50
2017-07-31T22:54:22.372Z,18.50
2017-07-31T22:56:49.995Z,18.40
2017-07-31T22:59:17.592Z,18.30
2017-07-31T23:01:45.556Z,18.30
2017-07-31T23:04:14.020Z,18.30
2017-07-31T23:06:41.620Z,18.30
2017-07-31T23:09:09.363Z,18.30
2017-07-31T23:11:36.970Z,18.40
2017-07-31T23:14:04.634Z,18.30
2017-07-31T23:16:32.341Z,18.30
2017-07-31T23:19:00.756Z,18.30
2017-07-31T23:21:28.384Z,18.40
2017-07-31T23:23:56.654Z,18.30
2017-07-31T23:26:25.242Z,18.20
2017-07-31T23:28:52.860Z,18.20
2017-07-31T23:31:20.599Z,18.20
2017-07-31T23:33:48.211Z,18.10
2017-07-31T23:36:15.882Z,18.20
2017-07-31T23:38:43.995Z,18.10
2017-07-31T23:41:11.582Z,18.10
2017-07-31T23:43:39.166Z,18.20
2017-07-31T23:46:06.900Z,18.30
2017-07-31T23:48:34.503Z,18.30
2017-07-31T23:51:02.884Z,18.20
2017-07-31T23:53:30.589Z,18.20
2017-07-31T23:55:58.202Z,18.20
2017-07-31T23:58:25.840Z,18.20
